sensor_id;sensor_type;location;lat;lon;timestamp;pressure;altitude;pressure_sealevel;temperature
71897;BMP280;59767;51.344;12.362;2023-03-13T00:01:28;160596.66;;;7.64
71897;BMP280;59767;51.344;12.362;2023-03-13T00:04:33;160586.22;;;7.60
71897;BMP280;59767;51.344;12.362;2023-03-13T00:07:37;160595.41;;;7.64
71897;BMP280;59767;51.344;12.362;2023-03-13T00:10:41;160608.44;;;7.69
71897;BMP280;59767;51.344;12.362;2023-03-13T00:13:45;160595.41;;;7.64
71897;BMP280;59767;51.344;12.362;2023-03-13T00:16:49;160594.06;;;7.63
71897;BMP280;59767;51.344;12.362;2023-03-13T00:19:54;160620.22;;;7.73
71897;BMP280;59767;51.344;12.362;2023-03-13T00:22:59;160628.06;;;7.76
71897;BMP280;59767;51.344;12.362;2023-03-13T00:26:12;160635.84;;;7.79
71897;BMP280;59767;51.344;12.362;2023-03-13T00:29:16;160614.97;;;7.71
71897;BMP280;59767;51.344;12.362;2023-03-13T00:32:20;160607.16;;;7.68
71897;BMP280;59767;51.344;12.362;2023-03-13T00:35:24;160612.34;;;7.70
71897;BMP280;59767;51.344;12.362;2023-03-13T00:38:29;160604.56;;;7.67
71897;BMP280;59767;51.344;12.362;2023-03-13T00:41:35;160611.03;;;7.70
71897;BMP280;59767;51.344;12.362;2023-03-13T00:44:39;160618.88;;;7.73
71897;BMP280;59767;51.344;12.362;2023-03-13T00:47:43;160616.28;;;7.72
71897;BMP280;59767;51.344;12.362;2023-03-13T00:50:47;160611.03;;;7.70
71897;BMP280;59767;51.344;12.362;2023-03-13T00:53:52;160634.56;;;7.79
71897;BMP280;59767;51.344;12.362;2023-03-13T00:56:57;160638.44;;;7.80
71897;BMP280;59767;51.344;12.362;2023-03-13T01:00:01;160656.78;;;7.87
71897;BMP280;59767;51.344;12.362;2023-03-13T01:03:05;160676.38;;;7.95
71897;BMP280;59767;51.344;12.362;2023-03-13T01:06:12;160685.53;;;7.98
71897;BMP280;59767;51.344;12.362;2023-03-13T01:09:16;160686.88;;;7.99
71897;BMP280;59767;51.344;12.362;2023-03-13T01:12:20;160690.78;;;8.00
71897;BMP280;59767;51.344;12.362;2023-03-13T01:15:25;160693.34;;;8.01
71897;BMP280;59767;51.344;12.362;2023-03-13T01:18:29;160698.59;;;8.03
71897;BMP280;59767;51.344;12.362;2023-03-13T01:21:33;160718.16;;;8.11
71897;BMP280;59767;51.344;12.362;2023-03-13T01:24:37;160729.94;;;8.15
71897;BMP280;59767;51.344;12.362;2023-03-13T01:27:41;160740.44;;;8.19
71897;BMP280;59767;51.344;12.362;2023-03-13T01:30:46;160769.19;;;8.30
71897;BMP280;59767;51.344;12.362;2023-03-13T01:33:53;160740.44;;;8.19
71897;BMP280;59767;51.344;12.362;2023-03-13T01:36:58;160741.72;;;8.20
71897;BMP280;59767;51.344;12.362;2023-03-13T01:40:02;160739.09;;;8.19
71897;BMP280;59767;51.344;12.362;2023-03-13T01:43:19;160735.19;;;8.17
71897;BMP280;59767;51.344;12.362;2023-03-13T01:46:29;160737.78;;;8.18
71897;BMP280;59767;51.344;12.362;2023-03-13T01:49:34;160745.69;;;8.21
71897;BMP280;59767;51.344;12.362;2023-03-13T01:52:38;160745.69;;;8.21
71897;BMP280;59767;51.344;12.362;2023-03-13T01:55:42;160737.78;;;8.18
71897;BMP280;59767;51.344;12.362;2023-03-13T01:58:48;160726.00;;;8.14
71897;BMP280;59767;51.344;12.362;2023-03-13T02:01:56;160723.41;;;8.13
71897;BMP280;59767;51.344;12.362;2023-03-13T02:05:03;160739.09;;;8.19
71897;BMP280;59767;51.344;12.362;2023-03-13T02:08:15;160754.75;;;8.25
71897;BMP280;59767;51.344;12.362;2023-03-13T02:11:47;160765.25;;;8.29
71897;BMP280;59767;51.344;12.362;2023-03-13T02:14:52;160770.50;;;8.31
71897;BMP280;59767;51.344;12.362;2023-03-13T02:17:57;160758.69;;;8.26
71897;BMP280;59767;51.344;12.362;2023-03-13T02:21:15;160758.69;;;8.26
71897;BMP280;59767;51.344;12.362;2023-03-13T02:24:34;160790.09;;;8.38
71897;BMP280;59767;51.344;12.362;2023-03-13T02:27:42;160783.50;;;8.36
71897;BMP280;59767;51.344;12.362;2023-03-13T02:30:47;160784.84;;;8.36
71897;BMP280;59767;51.344;12.362;2023-03-13T02:33:53;160783.50;;;8.36
71897;BMP280;59767;51.344;12.362;2023-03-13T02:37:00;160791.34;;;8.39
71897;BMP280;59767;51.344;12.362;2023-03-13T02:40:11;160817.50;;;8.49
71897;BMP280;59767;51.344;12.362;2023-03-13T02:43:28;160813.59;;;8.47
71897;BMP280;59767;51.344;12.362;2023-03-13T02:46:44;160821.44;;;8.50
71897;BMP280;59767;51.344;12.362;2023-03-13T02:49:49;160817.50;;;8.49
71897;BMP280;59767;51.344;12.362;2023-03-13T02:52:57;160834.50;;;8.55
71897;BMP280;59767;51.344;12.362;2023-03-13T02:56:04;160834.50;;;8.55
71897;BMP280;59767;51.344;12.362;2023-03-13T02:59:08;160839.75;;;8.57
71897;BMP280;59767;51.344;12.362;2023-03-13T03:02:13;160839.75;;;8.57
71897;BMP280;59767;51.344;12.362;2023-03-13T03:05:17;160830.56;;;8.54
71897;BMP280;59767;51.344;12.362;2023-03-13T03:08:21;160817.50;;;8.49
71897;BMP280;59767;51.344;12.362;2023-03-13T03:11:25;160820.16;;;8.50
71897;BMP280;59767;51.344;12.362;2023-03-13T03:14:29;160829.25;;;8.53
71897;BMP280;59767;51.344;12.362;2023-03-13T03:17:33;160813.59;;;8.47
71897;BMP280;59767;51.344;12.362;2023-03-13T03:20:38;160811.00;;;8.46
71897;BMP280;59767;51.344;12.362;2023-03-13T03:23:42;160831.91;;;8.54
71897;BMP280;59767;51.344;12.362;2023-03-13T03:26:46;160841.03;;;8.58
71897;BMP280;59767;51.344;12.362;2023-03-13T03:29:50;160852.78;;;8.62
71897;BMP280;59767;51.344;12.362;2023-03-13T03:32:54;160882.81;;;8.74
71897;BMP280;59767;51.344;12.362;2023-03-13T03:36:00;160861.91;;;8.66
71897;BMP280;59767;51.344;12.362;2023-03-13T03:39:04;160881.56;;;8.73
71897;BMP280;59767;51.344;12.362;2023-03-13T03:42:08;160886.75;;;8.75
71897;BMP280;59767;51.344;12.362;2023-03-13T03:45:12;160855.38;;;8.63
71897;BMP280;59767;51.344;12.362;2023-03-13T03:48:16;160858.00;;;8.64
71897;BMP280;59767;51.344;12.362;2023-03-13T03:51:21;160882.81;;;8.74
71897;BMP280;59767;51.344;12.362;2023-03-13T03:54:25;160889.41;;;8.76
71897;BMP280;59767;51.344;12.362;2023-03-13T03:57:29;160899.88;;;8.80
71897;BMP280;59767;51.344;12.362;2023-03-13T04:00:33;160890.69;;;8.77
71897;BMP280;59767;51.344;12.362;2023-03-13T04:03:37;160931.22;;;8.93
71897;BMP280;59767;51.344;12.362;2023-03-13T04:06:42;160909.00;;;8.84
71897;BMP280;59767;51.344;12.362;2023-03-13T04:09:46;160931.22;;;8.93
71897;BMP280;59767;51.344;12.362;2023-03-13T04:12:50;160926.03;;;8.91
71897;BMP280;59767;51.344;12.362;2023-03-13T04:15:54;160907.66;;;8.83
71897;BMP280;59767;51.344;12.362;2023-03-13T04:18:58;160929.91;;;8.92
71897;BMP280;59767;51.344;12.362;2023-03-13T04:22:02;160920.78;;;8.88
71897;BMP280;59767;51.344;12.362;2023-03-13T04:25:07;160940.41;;;8.96
71897;BMP280;59767;51.344;12.362;2023-03-13T04:28:11;160949.53;;;9.00
71897;BMP280;59767;51.344;12.362;2023-03-13T04:31:15;160936.44;;;8.94
71897;BMP280;59767;51.344;12.362;2023-03-13T04:34:19;160949.53;;;9.00
71897;BMP280;59767;51.344;12.362;2023-03-13T04:37:23;160936.44;;;8.94
71897;BMP280;59767;51.344;12.362;2023-03-13T04:40:28;160933.81;;;8.93
71897;BMP280;59767;51.344;12.362;2023-03-13T04:43:32;160928.56;;;8.91
71897;BMP280;59767;51.344;12.362;2023-03-13T04:46:36;160919.50;;;8.88
71897;BMP280;59767;51.344;12.362;2023-03-13T04:49:40;160937.75;;;8.95
71897;BMP280;59767;51.344;12.362;2023-03-13T04:52:44;160939.09;;;8.96
71897;BMP280;59767;51.344;12.362;2023-03-13T04:55:51;160923.41;;;8.90
71897;BMP280;59767;51.344;12.362;2023-03-13T04:58:55;160935.16;;;8.94
71897;BMP280;59767;51.344;12.362;2023-03-13T05:01:59;160943.00;;;8.97
71897;BMP280;59767;51.344;12.362;2023-03-13T05:05:04;160945.59;;;8.98
71897;BMP280;59767;51.344;12.362;2023-03-13T05:08:08;160949.53;;;9.00
71897;BMP280;59767;51.344;12.362;2023-03-13T05:11:13;160937.75;;;8.95
71897;BMP280;59767;51.344;12.362;2023-03-13T05:14:17;160933.81;;;8.93
71897;BMP280;59767;51.344;12.362;2023-03-13T05:17:22;160952.13;;;9.01
71897;BMP280;59767;51.344;12.362;2023-03-13T05:20:27;160958.66;;;9.03
71897;BMP280;59767;51.344;12.362;2023-03-13T05:23:31;160953.41;;;9.01
71897;BMP280;59767;51.344;12.362;2023-03-13T05:26:35;160954.75;;;9.02
71897;BMP280;59767;51.344;12.362;2023-03-13T05:29:39;160969.16;;;9.07
71897;BMP280;59767;51.344;12.362;2023-03-13T05:32:44;160961.25;;;9.04
71897;BMP280;59767;51.344;12.362;2023-03-13T05:35:48;160967.84;;;9.07
71897;BMP280;59767;51.344;12.362;2023-03-13T05:38:52;160973.09;;;9.09
71897;BMP280;59767;51.344;12.362;2023-03-13T05:41:56;160974.31;;;9.09
71897;BMP280;59767;51.344;12.362;2023-03-13T05:45:00;160983.50;;;9.13
71897;BMP280;59767;51.344;12.362;2023-03-13T05:48:05;160978.25;;;9.11
71897;BMP280;59767;51.344;12.362;2023-03-13T05:51:09;160982.19;;;9.12
71897;BMP280;59767;51.344;12.362;2023-03-13T05:54:13;161022.72;;;9.28
71897;BMP280;59767;51.344;12.362;2023-03-13T05:57:18;161029.25;;;9.30
71897;BMP280;59767;51.344;12.362;2023-03-13T06:00:22;161043.69;;;9.36
71897;BMP280;59767;51.344;12.362;2023-03-13T06:03:26;161048.84;;;9.38
71897;BMP280;59767;51.344;12.362;2023-03-13T06:06:31;161046.25;;;9.37
71897;BMP280;59767;51.344;12.362;2023-03-13T06:09:35;161044.97;;;9.36
71897;BMP280;59767;51.344;12.362;2023-03-13T06:12:39;161039.78;;;9.34
71897;BMP280;59767;51.344;12.362;2023-03-13T06:15:49;161058.03;;;9.41
71897;BMP280;59767;51.344;12.362;2023-03-13T06:18:53;161050.19;;;9.38
71897;BMP280;59767;51.344;12.362;2023-03-13T06:21:58;161054.09;;;9.40
71897;BMP280;59767;51.344;12.362;2023-03-13T06:25:02;161061.97;;;9.43
71897;BMP280;59767;51.344;12.362;2023-03-13T06:28:07;161044.97;;;9.36
71897;BMP280;59767;51.344;12.362;2023-03-13T06:31:11;161043.69;;;9.36
71897;BMP280;59767;51.344;12.362;2023-03-13T06:34:16;161033.19;;;9.32
71897;BMP280;59767;51.344;12.362;2023-03-13T06:37:20;161050.19;;;9.38
71897;BMP280;59767;51.344;12.362;2023-03-13T06:40:24;161063.28;;;9.43
71897;BMP280;59767;51.344;12.362;2023-03-13T06:43:29;161082.88;;;9.51
71897;BMP280;59767;51.344;12.362;2023-03-13T06:46:33;161132.56;;;9.70
71897;BMP280;59767;51.344;12.362;2023-03-13T06:49:37;161120.78;;;9.65
71897;BMP280;59767;51.344;12.362;2023-03-13T06:52:41;161105.13;;;9.59
71897;BMP280;59767;51.344;12.362;2023-03-13T06:55:47;161111.66;;;9.62
71897;BMP280;59767;51.344;12.362;2023-03-13T06:58:52;161114.31;;;9.63
71897;BMP280;59767;51.344;12.362;2023-03-13T07:01:56;161111.66;;;9.62
71897;BMP280;59767;51.344;12.362;2023-03-13T07:05:00;161111.66;;;9.62
71897;BMP280;59767;51.344;12.362;2023-03-13T07:08:08;161129.97;;;9.69
71897;BMP280;59767;51.344;12.362;2023-03-13T07:11:15;161135.22;;;9.71
71897;BMP280;59767;51.344;12.362;2023-03-13T07:14:20;161148.25;;;9.76
71897;BMP280;59767;51.344;12.362;2023-03-13T07:17:24;161166.56;;;9.83
71897;BMP280;59767;51.344;12.362;2023-03-13T07:20:28;161165.25;;;9.82
71897;BMP280;59767;51.344;12.362;2023-03-13T07:23:34;161216.28;;;10.02
71897;BMP280;59767;51.344;12.362;2023-03-13T07:26:38;161218.88;;;10.03
71897;BMP280;59767;51.344;12.362;2023-03-13T07:29:43;161269.88;;;10.22
71897;BMP280;59767;51.344;12.362;2023-03-13T07:32:47;161272.47;;;10.23
71897;BMP280;59767;51.344;12.362;2023-03-13T07:35:52;161297.34;;;10.33
71897;BMP280;59767;51.344;12.362;2023-03-13T07:38:56;161334.00;;;10.47
71897;BMP280;59767;51.344;12.362;2023-03-13T07:42:00;161369.31;;;10.60
71897;BMP280;59767;51.344;12.362;2023-03-13T07:45:05;161408.59;;;10.75
71897;BMP280;59767;51.344;12.362;2023-03-13T07:48:09;161416.47;;;10.78
71897;BMP280;59767;51.344;12.362;2023-03-13T07:51:16;161425.53;;;10.82
71897;BMP280;59767;51.344;12.362;2023-03-13T07:54:20;161430.81;;;10.84
71897;BMP280;59767;51.344;12.362;2023-03-13T07:57:25;161475.34;;;11.01
71897;BMP280;59767;51.344;12.362;2023-03-13T08:00:29;161463.50;;;10.96
71897;BMP280;59767;51.344;12.362;2023-03-13T08:03:33;161510.63;;;11.14
71897;BMP280;59767;51.344;12.362;2023-03-13T08:06:37;161508.03;;;11.13
71897;BMP280;59767;51.344;12.362;2023-03-13T08:09:43;161527.66;;;11.21
71897;BMP280;59767;51.344;12.362;2023-03-13T08:12:47;161527.66;;;11.21
71897;BMP280;59767;51.344;12.362;2023-03-13T08:15:51;161518.47;;;11.17
71897;BMP280;59767;51.344;12.362;2023-03-13T08:18:56;161527.66;;;11.21
71897;BMP280;59767;51.344;12.362;2023-03-13T08:22:01;161501.44;;;11.11
71897;BMP280;59767;51.344;12.362;2023-03-13T08:25:05;161492.31;;;11.07
71897;BMP280;59767;51.344;12.362;2023-03-13T08:28:09;161476.63;;;11.01
71897;BMP280;59767;51.344;12.362;2023-03-13T08:31:22;161470.09;;;10.99
71897;BMP280;59767;51.344;12.362;2023-03-13T08:34:27;161470.09;;;10.99
71897;BMP280;59767;51.344;12.362;2023-03-13T08:37:31;161471.38;;;10.99
71897;BMP280;59767;51.344;12.362;2023-03-13T08:40:34;161457.00;;;10.94
71897;BMP280;59767;51.344;12.362;2023-03-13T08:43:38;161485.75;;;11.05
71897;BMP280;59767;51.344;12.362;2023-03-13T08:46:43;161467.44;;;10.98
71897;BMP280;59767;51.344;12.362;2023-03-13T08:49:47;161464.81;;;10.97
71897;BMP280;59767;51.344;12.362;2023-03-13T08:52:51;161467.44;;;10.98
71897;BMP280;59767;51.344;12.362;2023-03-13T08:55:56;161462.22;;;10.96
71897;BMP280;59767;51.344;12.362;2023-03-13T08:59:01;161470.09;;;10.99
71897;BMP280;59767;51.344;12.362;2023-03-13T09:02:07;161470.09;;;10.99
71897;BMP280;59767;51.344;12.362;2023-03-13T09:05:12;161475.34;;;11.01
71897;BMP280;59767;51.344;12.362;2023-03-13T09:08:16;161492.31;;;11.07
71897;BMP280;59767;51.344;12.362;2023-03-13T09:11:20;161525.03;;;11.20
71897;BMP280;59767;51.344;12.362;2023-03-13T09:14:24;161519.78;;;11.18
71897;BMP280;59767;51.344;12.362;2023-03-13T09:17:29;161518.47;;;11.17
71897;BMP280;59767;51.344;12.362;2023-03-13T09:20:33;161527.66;;;11.21
71897;BMP280;59767;51.344;12.362;2023-03-13T09:23:37;161539.41;;;11.25
71897;BMP280;59767;51.344;12.362;2023-03-13T09:26:41;161551.19;;;11.30
71897;BMP280;59767;51.344;12.362;2023-03-13T09:29:58;161579.97;;;11.41
71897;BMP280;59767;51.344;12.362;2023-03-13T09:33:02;161629.72;;;11.60
71897;BMP280;59767;51.344;12.362;2023-03-13T09:36:06;161654.56;;;11.69
71897;BMP280;59767;51.344;12.362;2023-03-13T09:39:10;161669.03;;;11.75
71897;BMP280;59767;51.344;12.362;2023-03-13T09:42:34;161699.13;;;11.86
71897;BMP280;59767;51.344;12.362;2023-03-13T09:45:44;161725.28;;;11.96
71897;BMP280;59767;51.344;12.362;2023-03-13T09:48:53;161739.69;;;12.02
71897;BMP280;59767;51.344;12.362;2023-03-13T09:52:11;161784.16;;;12.19
71897;BMP280;59767;51.344;12.362;2023-03-13T09:55:31;161807.75;;;12.28
71897;BMP280;59767;51.344;12.362;2023-03-13T09:58:40;161801.19;;;12.25
71897;BMP280;59767;51.344;12.362;2023-03-13T10:01:48;161809.06;;;12.28
71897;BMP280;59767;51.344;12.362;2023-03-13T10:04:59;161823.47;;;12.34
71897;BMP280;59767;51.344;12.362;2023-03-13T10:08:14;161847.06;;;12.43
71897;BMP280;59767;51.344;12.362;2023-03-13T10:11:40;161857.50;;;12.47
71897;BMP280;59767;51.344;12.362;2023-03-13T10:18:13;161868.03;;;12.51
71897;BMP280;59767;51.344;12.362;2023-03-13T10:21:20;161894.19;;;12.61
71897;BMP280;59767;51.344;12.362;2023-03-13T10:24:44;161896.81;;;12.62
71897;BMP280;59767;51.344;12.362;2023-03-13T10:27:50;161900.75;;;12.63
71897;BMP280;59767;51.344;12.362;2023-03-13T10:31:16;161903.34;;;12.64
71897;BMP280;59767;51.344;12.362;2023-03-13T10:34:26;161915.16;;;12.69
71897;BMP280;59767;51.344;12.362;2023-03-13T10:37:34;161920.38;;;12.71
71897;BMP280;59767;51.344;12.362;2023-03-13T10:40:42;161951.84;;;12.83
71897;BMP280;59767;51.344;12.362;2023-03-13T10:43:51;161983.22;;;12.95
71897;BMP280;59767;51.344;12.362;2023-03-13T10:46:59;161970.13;;;12.90
71897;BMP280;59767;51.344;12.362;2023-03-13T10:50:04;162014.69;;;13.07
71897;BMP280;59767;51.344;12.362;2023-03-13T10:56:28;162053.97;;;13.22
71897;BMP280;59767;51.344;12.362;2023-03-13T10:59:38;162082.78;;;13.33
71897;BMP280;59767;51.344;12.362;2023-03-13T11:02:43;162103.75;;;13.41
71897;BMP280;59767;51.344;12.362;2023-03-13T11:06:02;162123.38;;;13.48
71897;BMP280;59767;51.344;12.362;2023-03-13T11:12:19;162213.81;;;13.83
71897;BMP280;59767;51.344;12.362;2023-03-13T11:15:38;162295.03;;;14.14
71897;BMP280;59767;51.344;12.362;2023-03-13T11:22:17;162327.78;;;14.26
71897;BMP280;59767;51.344;12.362;2023-03-13T11:25:30;162363.16;;;14.40
71897;BMP280;59767;51.344;12.362;2023-03-13T11:31:58;162407.72;;;14.57
71897;BMP280;59767;51.344;12.362;2023-03-13T11:35:14;162452.25;;;14.74
71897;BMP280;59767;51.344;12.362;2023-03-13T11:38:32;162491.63;;;14.89
71897;BMP280;59767;51.344;12.362;2023-03-13T11:52:08;162530.91;;;15.04
71897;BMP280;59767;51.344;12.362;2023-03-13T11:55:40;162639.75;;;15.45
71897;BMP280;59767;51.344;12.362;2023-03-13T12:02:29;162844.31;;;16.23
71897;BMP280;59767;51.344;12.362;2023-03-13T12:06:04;162921.69;;;16.53
71897;BMP280;59767;51.344;12.362;2023-03-13T12:09:28;163045.03;;;17.00
71897;BMP280;59767;51.344;12.362;2023-03-13T12:15:54;163131.63;;;17.33
71897;BMP280;59767;51.344;12.362;2023-03-13T12:18:59;163081.75;;;17.14
71897;BMP280;59767;51.344;12.362;2023-03-13T12:22:17;162987.25;;;16.78
71897;BMP280;59767;51.344;12.362;2023-03-13T12:25:33;163012.22;;;16.87
71897;BMP280;59767;51.344;12.362;2023-03-13T12:28:46;162976.78;;;16.74
71897;BMP280;59767;51.344;12.362;2023-03-13T12:35:06;162853.50;;;16.27
71897;BMP280;59767;51.344;12.362;2023-03-13T12:41:22;162832.53;;;16.19
71897;BMP280;59767;51.344;12.362;2023-03-13T12:44:30;162846.94;;;16.24
71897;BMP280;59767;51.344;12.362;2023-03-13T12:51:10;162783.94;;;16.00
71897;BMP280;59767;51.344;12.362;2023-03-13T12:58:18;162763.00;;;15.92
71897;BMP280;59767;51.344;12.362;2023-03-13T13:01:33;162727.59;;;15.79
71897;BMP280;59767;51.344;12.362;2023-03-13T13:04:44;162698.72;;;15.68
71897;BMP280;59767;51.344;12.362;2023-03-13T13:07:54;162698.72;;;15.68
71897;BMP280;59767;51.344;12.362;2023-03-13T13:18:04;162680.41;;;15.61
71897;BMP280;59767;51.344;12.362;2023-03-13T13:24:47;162717.06;;;15.75
71897;BMP280;59767;51.344;12.362;2023-03-13T13:27:52;162718.41;;;15.75
71897;BMP280;59767;51.344;12.362;2023-03-13T13:30:57;162731.53;;;15.80
71897;BMP280;59767;51.344;12.362;2023-03-13T13:34:01;162794.50;;;16.04
71897;BMP280;59767;51.344;12.362;2023-03-13T13:43:22;162740.69;;;15.84
71897;BMP280;59767;51.344;12.362;2023-03-13T13:46:30;162732.88;;;15.81
71897;BMP280;59767;51.344;12.362;2023-03-13T13:49:50;162701.34;;;15.69
71897;BMP280;59767;51.344;12.362;2023-03-13T13:53:30;162707.97;;;15.71
71897;BMP280;59767;51.344;12.362;2023-03-13T13:56:47;162718.41;;;15.75
71897;BMP280;59767;51.344;12.362;2023-03-13T14:00:04;162723.69;;;15.77
71897;BMP280;59767;51.344;12.362;2023-03-13T14:03:32;162765.66;;;15.93
71897;BMP280;59767;51.344;12.362;2023-03-13T14:06:36;162774.81;;;15.97
71897;BMP280;59767;51.344;12.362;2023-03-13T14:12:50;162832.53;;;16.19
71897;BMP280;59767;51.344;12.362;2023-03-13T14:15:55;162879.69;;;16.37
71897;BMP280;59767;51.344;12.362;2023-03-13T14:18:59;162932.19;;;16.57
71897;BMP280;59767;51.344;12.362;2023-03-13T14:22:08;162920.41;;;16.52
71897;BMP280;59767;51.344;12.362;2023-03-13T14:25:13;162895.47;;;16.43
71897;BMP280;59767;51.344;12.362;2023-03-13T14:28:27;162878.41;;;16.36
71897;BMP280;59767;51.344;12.362;2023-03-13T14:31:38;162871.84;;;16.34
71897;BMP280;59767;51.344;12.362;2023-03-13T14:34:43;162845.66;;;16.24
71897;BMP280;59767;51.344;12.362;2023-03-13T14:37:49;162808.91;;;16.10
71897;BMP280;59767;51.344;12.362;2023-03-13T14:40:55;162773.50;;;15.96
71897;BMP280;59767;51.344;12.362;2023-03-13T14:44:19;162768.22;;;15.94
71897;BMP280;59767;51.344;12.362;2023-03-13T14:47:27;162736.81;;;15.82
71897;BMP280;59767;51.344;12.362;2023-03-13T14:50:34;162723.69;;;15.77
71897;BMP280;59767;51.344;12.362;2023-03-13T14:53:39;162761.72;;;15.92
71897;BMP280;59767;51.344;12.362;2023-03-13T14:56:43;162768.22;;;15.94
71897;BMP280;59767;51.344;12.362;2023-03-13T14:59:48;162780.06;;;15.99
71897;BMP280;59767;51.344;12.362;2023-03-13T15:03:21;162827.25;;;16.17
71897;BMP280;59767;51.344;12.362;2023-03-13T15:06:27;162861.41;;;16.30
71897;BMP280;59767;51.344;12.362;2023-03-13T15:09:31;162898.09;;;16.44
71897;BMP280;59767;51.344;12.362;2023-03-13T15:12:41;162936.13;;;16.58
71897;BMP280;59767;51.344;12.362;2023-03-13T15:15:46;162941.41;;;16.60
71897;BMP280;59767;51.344;12.362;2023-03-13T15:18:51;162920.41;;;16.52
71897;BMP280;59767;51.344;12.362;2023-03-13T15:21:56;162911.22;;;16.49
71897;BMP280;59767;51.344;12.362;2023-03-13T15:25:00;162878.41;;;16.36
71897;BMP280;59767;51.344;12.362;2023-03-13T15:31:22;162777.44;;;15.98
71897;BMP280;59767;51.344;12.362;2023-03-13T15:34:28;162740.69;;;15.84
71897;BMP280;59767;51.344;12.362;2023-03-13T15:37:32;162705.28;;;15.70
71897;BMP280;59767;51.344;12.362;2023-03-13T15:40:38;162672.50;;;15.58
71897;BMP280;59767;51.344;12.362;2023-03-13T15:43:42;162664.66;;;15.55
71897;BMP280;59767;51.344;12.362;2023-03-13T15:46:46;162664.66;;;15.55
71897;BMP280;59767;51.344;12.362;2023-03-13T15:49:51;162651.53;;;15.50
71897;BMP280;59767;51.344;12.362;2023-03-13T15:52:55;162651.53;;;15.50
71897;BMP280;59767;51.344;12.362;2023-03-13T15:56:01;162656.78;;;15.52
71897;BMP280;59767;51.344;12.362;2023-03-13T15:59:13;162664.66;;;15.55
71897;BMP280;59767;51.344;12.362;2023-03-13T16:02:20;162688.22;;;15.64
71897;BMP280;59767;51.344;12.362;2023-03-13T16:05:24;162718.41;;;15.75
71897;BMP280;59767;51.344;12.362;2023-03-13T16:08:29;162756.44;;;15.90
71897;BMP280;59767;51.344;12.362;2023-03-13T16:11:39;162772.16;;;15.96
71897;BMP280;59767;51.344;12.362;2023-03-13T16:14:43;162806.28;;;16.09
71897;BMP280;59767;51.344;12.362;2023-03-13T16:17:47;162815.47;;;16.12
71897;BMP280;59767;51.344;12.362;2023-03-13T16:20:53;162795.78;;;16.05
71897;BMP280;59767;51.344;12.362;2023-03-13T16:23:57;162743.31;;;15.85
71897;BMP280;59767;51.344;12.362;2023-03-13T16:27:09;162731.53;;;15.80
71897;BMP280;59767;51.344;12.362;2023-03-13T16:30:26;162685.63;;;15.63
71897;BMP280;59767;51.344;12.362;2023-03-13T16:33:30;162641.09;;;15.46
71897;BMP280;59767;51.344;12.362;2023-03-13T16:36:35;162622.69;;;15.39
71897;BMP280;59767;51.344;12.362;2023-03-13T16:39:40;162599.09;;;15.30
71897;BMP280;59767;51.344;12.362;2023-03-13T16:42:45;162571.53;;;15.19
71897;BMP280;59767;51.344;12.362;2023-03-13T16:45:49;162555.81;;;15.13
71897;BMP280;59767;51.344;12.362;2023-03-13T16:48:53;162557.13;;;15.14
71897;BMP280;59767;51.344;12.362;2023-03-13T16:51:59;162574.19;;;15.20
71897;BMP280;59767;51.344;12.362;2023-03-13T16:55:04;162554.56;;;15.13
71897;BMP280;59767;51.344;12.362;2023-03-13T16:58:10;162533.56;;;15.05
71897;BMP280;59767;51.344;12.362;2023-03-13T17:01:15;162528.31;;;15.03
71897;BMP280;59767;51.344;12.362;2023-03-13T17:04:19;162499.47;;;14.92
71897;BMP280;59767;51.344;12.362;2023-03-13T17:07:24;162499.47;;;14.92
71897;BMP280;59767;51.344;12.362;2023-03-13T17:10:31;162509.97;;;14.96
71897;BMP280;59767;51.344;12.362;2023-03-13T17:13:35;162520.47;;;15.00
71897;BMP280;59767;51.344;12.362;2023-03-13T17:16:43;162494.25;;;14.90
71897;BMP280;59767;51.344;12.362;2023-03-13T17:19:47;162490.31;;;14.88
71897;BMP280;59767;51.344;12.362;2023-03-13T17:22:51;162464.09;;;14.78
71897;BMP280;59767;51.344;12.362;2023-03-13T17:25:56;162458.88;;;14.76
71897;BMP280;59767;51.344;12.362;2023-03-13T17:29:01;162461.47;;;14.77
71897;BMP280;59767;51.344;12.362;2023-03-13T17:32:07;162452.25;;;14.74
71897;BMP280;59767;51.344;12.362;2023-03-13T17:35:11;162470.63;;;14.81
71897;BMP280;59767;51.344;12.362;2023-03-13T17:38:15;162439.16;;;14.69
71897;BMP280;59767;51.344;12.362;2023-03-13T17:41:21;162431.31;;;14.66
71897;BMP280;59767;51.344;12.362;2023-03-13T17:44:28;162428.69;;;14.65
71897;BMP280;59767;51.344;12.362;2023-03-13T17:47:33;162440.47;;;14.69
71897;BMP280;59767;51.344;12.362;2023-03-13T17:50:37;162443.09;;;14.70
71897;BMP280;59767;51.344;12.362;2023-03-13T17:53:42;162445.75;;;14.71
71897;BMP280;59767;51.344;12.362;2023-03-13T17:56:46;162436.59;;;14.68
71897;BMP280;59767;51.344;12.362;2023-03-13T17:59:50;162449.69;;;14.73
71897;BMP280;59767;51.344;12.362;2023-03-13T18:02:54;162449.69;;;14.73
71897;BMP280;59767;51.344;12.362;2023-03-13T18:05:58;162439.16;;;14.69
71897;BMP280;59767;51.344;12.362;2023-03-13T18:09:04;162437.88;;;14.68
71897;BMP280;59767;51.344;12.362;2023-03-13T18:12:10;162407.72;;;14.57
71897;BMP280;59767;51.344;12.362;2023-03-13T18:15:15;162418.19;;;14.61
71897;BMP280;59767;51.344;12.362;2023-03-13T18:18:19;162466.69;;;14.79
71897;BMP280;59767;51.344;12.362;2023-03-13T18:21:23;162507.34;;;14.95
71897;BMP280;59767;51.344;12.362;2023-03-13T18:24:27;162492.91;;;14.89
71897;BMP280;59767;51.344;12.362;2023-03-13T18:27:31;162471.91;;;14.81
71897;BMP280;59767;51.344;12.362;2023-03-13T18:30:36;162467.97;;;14.80
71897;BMP280;59767;51.344;12.362;2023-03-13T18:33:42;162469.31;;;14.80
71897;BMP280;59767;51.344;12.362;2023-03-13T18:36:46;162457.53;;;14.76
71897;BMP280;59767;51.344;12.362;2023-03-13T18:39:51;162457.53;;;14.76
71897;BMP280;59767;51.344;12.362;2023-03-13T18:42:55;162449.69;;;14.73